createdAt,value
2019-03-16T00:01:36.925Z,98894.99
2019-03-16T00:04:09.292Z,98894.71
2019-03-16T00:06:41.626Z,98900.59
2019-03-16T00:09:13.927Z,98899.03
2019-03-16T00:11:46.393Z,98906.55
2019-03-16T00:14:19.875Z,98902.52
2019-03-16T00:16:52.274Z,98910.07
2019-03-16T00:19:24.636Z,98907.00
2019-03-16T00:21:57.052Z,98902.80
2019-03-16T00:24:29.420Z,98915.95
2019-03-16T00:27:01.815Z,98913.08
2019-03-16T00:29:34.209Z,98908.91
2019-03-16T00:32:13.414Z,98917.44
2019-03-16T00:34:40.657Z,98914.23
2019-03-16T00:37:13.059Z,98918.39
2019-03-16T00:39:45.425Z,98918.39
2019-03-16T00:42:18.874Z,98922.88
2019-03-16T00:44:51.237Z,98917.63
2019-03-16T00:47:23.618Z,98919.23
2019-03-16T00:49:56.018Z,98925.12
2019-03-16T00:52:28.411Z,98927.55
2019-03-16T00:55:00.787Z,98931.84
2019-03-16T00:57:33.184Z,98922.88
2019-03-16T01:00:05.806Z,98925.31
2019-03-16T01:02:38.180Z,98936.06
2019-03-16T01:05:10.622Z,98937.95
2019-03-16T01:07:43.106Z,98937.79
2019-03-16T01:10:15.475Z,98936.19
2019-03-16T01:12:47.891Z,98942.59
2019-03-16T01:15:20.277Z,98938.11
2019-03-16T01:17:52.639Z,98935.27
2019-03-16T01:20:25.038Z,98932.63
2019-03-16T01:22:57.421Z,98951.20
2019-03-16T01:25:29.886Z,98952.31
2019-03-16T01:28:11.458Z,98958.08
2019-03-16T01:30:43.844Z,98956.31
2019-03-16T01:33:16.327Z,98943.67
2019-03-16T01:35:48.694Z,98947.19
2019-03-16T01:38:21.094Z,98956.16
2019-03-16T01:40:53.527Z,98954.33
2019-03-16T01:43:25.946Z,98939.80
2019-03-16T01:45:59.395Z,98944.05
2019-03-16T01:48:31.856Z,98940.95
2019-03-16T01:51:04.230Z,98945.56
2019-03-16T01:53:36.651Z,98934.59
2019-03-16T01:56:09.031Z,98936.80
2019-03-16T01:58:41.435Z,98940.16
2019-03-16T02:01:13.810Z,98935.36
2019-03-16T02:03:46.208Z,98932.98
2019-03-16T02:06:18.582Z,98946.23
2019-03-16T02:08:51.054Z,98963.68
2019-03-16T02:11:23.445Z,98946.40
2019-03-16T02:13:55.850Z,98949.47
2019-03-16T02:16:28.220Z,98957.95
2019-03-16T02:19:00.542Z,98960.70
2019-03-16T02:21:33.020Z,98949.47
2019-03-16T02:24:05.419Z,98945.80
2019-03-16T02:26:37.722Z,98954.75
2019-03-16T02:29:10.112Z,98942.43
2019-03-16T02:31:42.510Z,98949.63
2019-03-16T02:34:14.915Z,98954.08
2019-03-16T02:36:53.537Z,98949.59
2019-03-16T02:39:25.978Z,98951.75
2019-03-16T02:41:58.370Z,98958.27
2019-03-16T02:44:30.770Z,98957.16
2019-03-16T02:47:03.150Z,98942.11
2019-03-16T02:49:35.477Z,98950.56
2019-03-16T02:52:07.877Z,98962.63
2019-03-16T02:54:40.283Z,98959.23
2019-03-16T02:57:13.625Z,98964.99
2019-03-16T02:59:46.096Z,98965.35
2019-03-16T03:02:18.640Z,98972.55
2019-03-16T03:04:51.027Z,98979.27
2019-03-16T03:07:23.504Z,98965.70
2019-03-16T03:09:55.947Z,98969.48
2019-03-16T03:12:28.317Z,98971.14
2019-03-16T03:15:00.754Z,98963.68
2019-03-16T03:17:34.351Z,98961.95
2019-03-16T03:20:07.171Z,98968.16
2019-03-16T03:22:39.562Z,98967.36
2019-03-16T03:25:11.952Z,98970.88
2019-03-16T03:27:44.314Z,98970.75
2019-03-16T03:30:16.824Z,98979.03
2019-03-16T03:32:49.267Z,98976.44
2019-03-16T03:35:21.672Z,98981.76
2019-03-16T03:37:55.601Z,98970.88
2019-03-16T03:40:27.995Z,98981.44
2019-03-16T03:43:00.312Z,98988.28
2019-03-16T03:45:32.710Z,98994.33
2019-03-16T03:48:05.072Z,98991.73
2019-03-16T03:50:37.527Z,98984.05
2019-03-16T03:53:09.903Z,98989.33
2019-03-16T03:55:42.304Z,98991.70
2019-03-16T03:58:14.661Z,98994.89
2019-03-16T04:00:47.061Z,98995.69
2019-03-16T04:03:19.422Z,99001.94
2019-03-16T04:05:51.819Z,98992.65
2019-03-16T04:08:24.233Z,99002.85
2019-03-16T04:10:56.622Z,98996.29
2019-03-16T04:13:28.940Z,98994.69
2019-03-16T04:16:01.395Z,98990.66
2019-03-16T04:18:33.697Z,98997.56
2019-03-16T04:21:06.090Z,98988.70
2019-03-16T04:23:38.505Z,98998.13
2019-03-16T04:26:10.905Z,99003.09
2019-03-16T04:28:43.292Z,98999.81
2019-03-16T04:31:15.692Z,99010.19
2019-03-16T04:33:48.042Z,98995.47
2019-03-16T04:36:20.443Z,99004.55
2019-03-16T04:38:52.830Z,99000.02
2019-03-16T04:41:25.222Z,99003.34
2019-03-16T04:43:57.592Z,99004.95
2019-03-16T04:46:31.476Z,99005.58
2019-03-16T04:49:03.927Z,99001.73
2019-03-16T04:51:36.313Z,99005.59
2019-03-16T04:54:08.687Z,99006.55
2019-03-16T04:56:41.077Z,99006.98
2019-03-16T04:59:13.445Z,98996.55
2019-03-16T05:01:45.854Z,99002.15
2019-03-16T05:04:18.242Z,99001.34
2019-03-16T05:06:50.551Z,98989.47
2019-03-16T05:09:22.983Z,98997.91
2019-03-16T05:11:55.385Z,98992.15
2019-03-16T05:14:27.755Z,98998.71
2019-03-16T05:17:00.117Z,98991.31
2019-03-16T05:19:32.504Z,98993.59
2019-03-16T05:22:04.911Z,99001.15
2019-03-16T05:24:37.287Z,98999.16
2019-03-16T05:27:09.684Z,98996.91
2019-03-16T05:29:42.064Z,98993.23
2019-03-16T05:32:14.462Z,98998.52
2019-03-16T05:34:56.441Z,98990.03
2019-03-16T05:37:21.095Z,99005.23
2019-03-16T05:39:53.452Z,99004.87
2019-03-16T05:42:26.956Z,99017.70
2019-03-16T05:44:59.333Z,99015.94
2019-03-16T05:47:31.740Z,99013.39
2019-03-16T05:50:04.616Z,99017.19
2019-03-16T05:52:37.033Z,99005.80
2019-03-16T05:55:09.395Z,99010.31
2019-03-16T05:57:41.847Z,99011.52
2019-03-16T06:00:14.248Z,99017.34
2019-03-16T06:02:46.636Z,99007.99
2019-03-16T06:05:19.006Z,99017.67
2019-03-16T06:07:51.466Z,99018.11
2019-03-16T06:10:23.840Z,99013.75
2019-03-16T06:12:56.243Z,99017.58
2019-03-16T06:15:28.622Z,99030.30
2019-03-16T06:18:01.084Z,99028.06
2019-03-16T06:20:35.764Z,99035.26
2019-03-16T06:23:08.167Z,99031.87
2019-03-16T06:25:40.568Z,99029.27
2019-03-16T06:28:12.982Z,99033.59
2019-03-16T06:30:45.355Z,99037.30
2019-03-16T06:33:18.823Z,99035.38
2019-03-16T06:35:52.269Z,99042.13
2019-03-16T06:38:24.643Z,99042.78
2019-03-16T06:40:57.046Z,99040.06
2019-03-16T06:43:29.431Z,99042.42
2019-03-16T06:46:01.811Z,99039.70
2019-03-16T06:48:34.209Z,99036.34
2019-03-16T06:51:06.580Z,99037.14
2019-03-16T06:53:38.985Z,99034.23
2019-03-16T06:56:11.367Z,99040.02
2019-03-16T06:58:43.749Z,99048.86
2019-03-16T07:01:16.115Z,99042.42
2019-03-16T07:03:48.517Z,99042.42
2019-03-16T07:06:20.909Z,99039.50
2019-03-16T07:08:53.326Z,99045.45
2019-03-16T07:11:25.691Z,99042.10
2019-03-16T07:13:58.149Z,99052.86
2019-03-16T07:16:30.492Z,99050.77
2019-03-16T07:19:02.899Z,99056.37
2019-03-16T07:21:35.294Z,99054.45
2019-03-16T07:24:07.722Z,99058.34
2019-03-16T07:26:40.095Z,99054.45
2019-03-16T07:29:12.498Z,99065.21
2019-03-16T07:31:44.887Z,99072.38
2019-03-16T07:34:17.285Z,99083.29
2019-03-16T07:36:49.668Z,99076.25
2019-03-16T07:39:23.141Z,99080.73
2019-03-16T07:41:55.532Z,99093.37
2019-03-16T07:44:27.922Z,99094.37
2019-03-16T07:47:00.300Z,99096.77
2019-03-16T07:49:32.743Z,99091.20
2019-03-16T07:52:05.047Z,99107.69
2019-03-16T07:54:37.448Z,99107.52
2019-03-16T07:57:09.756Z,99107.20
2019-03-16T07:59:42.156Z,99105.92
2019-03-16T08:02:14.536Z,99099.25
2019-03-16T08:04:46.950Z,99104.05
2019-03-16T08:07:19.320Z,99094.89
2019-03-16T08:09:51.721Z,99103.20
2019-03-16T08:12:24.152Z,99099.38
2019-03-16T08:14:56.582Z,99117.97
2019-03-16T08:17:28.948Z,99112.38
2019-03-16T08:20:01.429Z,99118.13
2019-03-16T08:22:33.803Z,99124.53
2019-03-16T08:25:06.311Z,99118.45
2019-03-16T08:27:38.682Z,99112.65
2019-03-16T08:30:11.336Z,99115.69
2019-03-16T08:32:43.778Z,99118.09
2019-03-16T08:35:16.173Z,99116.97
2019-03-16T08:37:48.628Z,99124.16
2019-03-16T08:40:21.020Z,99126.56
2019-03-16T08:42:53.454Z,99128.48
2019-03-16T08:45:25.861Z,99130.96
2019-03-16T08:47:58.231Z,99111.33
2019-03-16T08:50:30.537Z,99127.44
2019-03-16T08:53:02.930Z,99129.72
2019-03-16T08:55:35.306Z,99129.08
2019-03-16T08:58:10.822Z,99110.81
2019-03-16T09:00:42.902Z,99121.80
2019-03-16T09:03:15.294Z,99134.84
2019-03-16T09:05:47.677Z,99104.72
2019-03-16T09:08:20.074Z,99121.08
2019-03-16T09:10:52.470Z,99119.96
2019-03-16T09:13:24.861Z,99123.80
2019-03-16T09:15:57.222Z,99119.48
2019-03-16T09:18:29.623Z,99112.77
2019-03-16T09:21:02.003Z,99107.77
2019-03-16T09:23:34.400Z,99109.28
2019-03-16T09:26:06.833Z,99108.28
2019-03-16T09:28:39.224Z,99113.77
2019-03-16T09:31:11.596Z,99111.38
2019-03-16T09:33:43.978Z,99107.73
2019-03-16T09:36:16.348Z,99103.92
2019-03-16T09:38:48.753Z,99108.89
2019-03-16T09:41:21.130Z,99111.01
2019-03-16T09:43:53.533Z,99110.20
2019-03-16T09:46:26.080Z,99108.01
2019-03-16T09:48:58.543Z,99114.09
2019-03-16T09:51:32.008Z,99117.20
2019-03-16T09:54:04.410Z,99104.61
2019-03-16T09:56:36.773Z,99099.53
2019-03-16T09:59:09.182Z,99095.57
2019-03-16T10:01:41.543Z,99100.38
2019-03-16T10:04:13.938Z,99103.14
2019-03-16T10:06:46.316Z,99106.70
2019-03-16T10:09:18.704Z,99101.09
2019-03-16T10:11:51.075Z,99105.77
2019-03-16T10:14:23.486Z,99105.30
2019-03-16T10:16:55.803Z,99103.86
2019-03-16T10:19:28.200Z,99106.58
2019-03-16T10:22:00.560Z,99116.09
2019-03-16T10:24:32.977Z,99111.42
2019-03-16T10:27:05.350Z,99106.73
2019-03-16T10:29:39.348Z,99113.33
2019-03-16T10:32:12.789Z,99116.42
2019-03-16T10:34:45.233Z,99106.58
2019-03-16T10:37:17.607Z,99106.25
2019-03-16T10:39:49.934Z,99112.50
2019-03-16T10:42:22.327Z,99110.53
2019-03-16T10:44:54.737Z,99110.50
2019-03-16T10:47:27.134Z,99107.73
2019-03-16T10:49:59.525Z,99107.53
2019-03-16T10:52:32.775Z,99104.17
2019-03-16T10:55:05.541Z,99102.69
2019-03-16T10:57:37.930Z,99097.81
2019-03-16T11:00:10.918Z,99089.30
2019-03-16T11:02:43.304Z,99093.73
2019-03-16T11:05:15.794Z,99082.38
2019-03-16T11:07:48.187Z,99087.97
2019-03-16T11:10:20.574Z,99081.66
2019-03-16T11:12:52.932Z,99094.69
2019-03-16T11:15:25.340Z,99081.17
2019-03-16T11:17:57.707Z,99083.58
2019-03-16T11:20:30.104Z,99085.65
2019-03-16T11:23:02.493Z,99091.57
2019-03-16T11:25:34.882Z,99087.05
2019-03-16T11:28:07.268Z,99077.77
2019-03-16T11:30:39.662Z,99078.41
2019-03-16T11:33:11.970Z,99077.09
2019-03-16T11:35:44.431Z,99068.14
2019-03-16T11:38:16.818Z,99064.02
2019-03-16T11:40:49.218Z,99052.17
2019-03-16T11:43:23.910Z,99063.73
2019-03-16T11:45:56.319Z,99058.34
2019-03-16T11:48:28.727Z,99049.27
2019-03-16T11:51:01.117Z,99048.02
2019-03-16T11:53:33.501Z,99052.90
2019-03-16T11:56:17.346Z,99050.73
2019-03-16T11:58:39.991Z,99041.66
2019-03-16T12:01:12.382Z,99040.54
2019-03-16T12:03:44.759Z,99033.25
2019-03-16T12:06:17.175Z,99026.89
2019-03-16T12:08:49.548Z,99027.94
2019-03-16T12:11:21.954Z,99026.05
2019-03-16T12:13:54.329Z,99024.33
2019-03-16T12:16:26.739Z,99023.12
2019-03-16T12:18:59.109Z,99013.88
2019-03-16T12:21:31.506Z,99000.34
2019-03-16T12:24:03.878Z,99002.03
2019-03-16T12:26:36.270Z,99003.09
2019-03-16T12:29:08.652Z,98997.73
2019-03-16T12:31:40.980Z,99000.97
2019-03-16T12:34:13.357Z,99000.68
2019-03-16T12:36:45.780Z,99001.05
2019-03-16T12:39:18.158Z,98998.52
2019-03-16T12:41:50.514Z,98985.14
2019-03-16T12:44:22.876Z,98986.10
2019-03-16T12:46:55.210Z,98991.70
2019-03-16T12:49:27.669Z,98981.81
2019-03-16T12:51:59.994Z,98974.33
2019-03-16T12:54:32.367Z,98977.85
2019-03-16T12:57:04.755Z,98968.25
2019-03-16T12:59:46.767Z,98976.89
2019-03-16T13:02:14.187Z,98977.81
2019-03-16T13:04:46.566Z,98978.73
2019-03-16T13:07:19.046Z,98973.33
2019-03-16T13:09:51.551Z,98975.73
2019-03-16T13:12:23.953Z,98966.41
2019-03-16T13:14:56.331Z,98962.25
2019-03-16T13:17:28.735Z,98955.69
2019-03-16T13:20:01.115Z,98959.69
2019-03-16T13:22:33.590Z,98966.70
2019-03-16T13:25:06.429Z,98957.73
2019-03-16T13:27:39.008Z,98962.73
2019-03-16T13:30:13.010Z,98957.29
2019-03-16T13:32:45.356Z,98950.88
2019-03-16T13:35:17.724Z,98965.58
2019-03-16T13:37:50.282Z,98953.25
2019-03-16T13:40:22.657Z,98954.73
2019-03-16T13:42:55.078Z,98949.57
2019-03-16T13:45:27.443Z,98955.20
2019-03-16T13:47:59.842Z,98956.65
2019-03-16T13:50:32.208Z,98949.13
2019-03-16T13:53:04.996Z,98953.48
2019-03-16T13:55:37.362Z,98944.36
2019-03-16T13:58:12.379Z,98948.84
2019-03-16T14:00:43.884Z,98939.23
2019-03-16T14:03:16.449Z,98937.80
2019-03-16T14:05:48.925Z,98935.23
2019-03-16T14:08:21.333Z,98935.55
2019-03-16T14:10:53.692Z,98925.44
2019-03-16T14:13:26.373Z,98931.04
2019-03-16T14:15:58.749Z,98928.16
2019-03-16T14:18:31.209Z,98927.03
2019-03-16T14:21:03.612Z,98926.67
2019-03-16T14:23:35.995Z,98923.44
2019-03-16T14:26:08.391Z,98921.97
2019-03-16T14:28:40.770Z,98911.72
2019-03-16T14:31:13.169Z,98919.09
2019-03-16T14:33:45.462Z,98922.45
2019-03-16T14:36:20.992Z,98914.61
2019-03-16T14:38:53.490Z,98918.48
2019-03-16T14:41:25.972Z,98908.88
2019-03-16T14:43:58.553Z,98916.75
2019-03-16T14:46:30.927Z,98912.88
2019-03-16T14:49:03.337Z,98910.03
2019-03-16T14:51:35.723Z,98913.59
2019-03-16T14:54:08.100Z,98903.50
2019-03-16T14:56:40.496Z,98899.34
2019-03-16T14:59:12.893Z,98906.42
2019-03-16T15:01:45.315Z,98898.22
2019-03-16T15:04:17.688Z,98900.50
2019-03-16T15:06:50.089Z,98890.06
2019-03-16T15:09:22.493Z,98887.84
2019-03-16T15:11:54.879Z,98874.44
2019-03-16T15:14:28.803Z,98886.28
2019-03-16T15:17:01.205Z,98877.45
2019-03-16T15:19:33.590Z,98876.17
2019-03-16T15:22:08.217Z,98864.80
2019-03-16T15:24:40.611Z,98861.95
2019-03-16T15:27:15.830Z,98862.95
2019-03-16T15:29:48.386Z,98848.66
2019-03-16T15:32:20.940Z,98845.66
2019-03-16T15:34:53.314Z,98842.62
2019-03-16T15:37:25.782Z,98841.98
2019-03-16T15:39:58.161Z,98835.57
2019-03-16T15:42:30.517Z,98841.34
2019-03-16T15:45:02.893Z,98835.73
2019-03-16T15:47:38.252Z,98837.02
2019-03-16T15:50:10.712Z,98830.26
2019-03-16T15:52:43.199Z,98833.45
2019-03-16T15:55:15.511Z,98831.19
2019-03-16T15:57:47.937Z,98829.58
2019-03-16T16:00:20.596Z,98832.14
2019-03-16T16:02:53.064Z,98821.23
2019-03-16T16:05:25.481Z,98815.95
2019-03-16T16:07:57.893Z,98809.03
2019-03-16T16:10:30.259Z,98804.87
2019-03-16T16:13:02.686Z,98812.04
2019-03-16T16:15:36.133Z,98803.23
2019-03-16T16:18:08.537Z,98804.52
2019-03-16T16:20:40.921Z,98802.56
2019-03-16T16:23:13.318Z,98800.48
2019-03-16T16:25:45.704Z,98802.56
2019-03-16T16:28:18.108Z,98798.41
2019-03-16T16:30:50.409Z,98801.92
2019-03-16T16:33:23.187Z,98801.80
2019-03-16T16:35:55.732Z,98800.67
2019-03-16T16:38:28.144Z,98789.28
2019-03-16T16:41:00.476Z,98787.03
2019-03-16T16:43:32.870Z,98782.88
2019-03-16T16:46:06.813Z,98779.70
2019-03-16T16:48:39.234Z,98777.59
2019-03-16T16:51:11.609Z,98774.39
2019-03-16T16:53:44.003Z,98769.27
2019-03-16T16:56:16.380Z,98770.71
2019-03-16T16:58:48.785Z,98762.87
2019-03-16T17:01:29.170Z,98760.47
2019-03-16T17:03:55.388Z,98759.80
2019-03-16T17:06:27.768Z,98754.39
2019-03-16T17:09:00.156Z,98745.23
2019-03-16T17:11:32.538Z,98748.20
2019-03-16T17:14:04.937Z,98750.45
2019-03-16T17:16:37.313Z,98748.34
2019-03-16T17:19:09.631Z,98746.06
2019-03-16T17:21:42.004Z,98738.67
2019-03-16T17:24:14.477Z,98732.88
2019-03-16T17:26:46.842Z,98725.00
2019-03-16T17:29:20.858Z,98721.58
2019-03-16T17:31:53.291Z,98722.70
2019-03-16T17:34:25.815Z,98719.92
2019-03-16T17:36:58.319Z,98719.13
2019-03-16T17:39:33.491Z,98713.61
2019-03-16T17:42:07.859Z,98720.63
2019-03-16T17:44:40.351Z,98710.83
2019-03-16T17:47:12.853Z,98713.04
2019-03-16T17:49:45.849Z,98711.73
2019-03-16T17:52:18.322Z,98703.22
2019-03-16T17:54:50.715Z,98701.27
2019-03-16T17:57:23.111Z,98698.39
2019-03-16T17:59:55.645Z,98702.19
2019-03-16T18:02:28.050Z,98703.34
2019-03-16T18:05:00.427Z,98700.08
2019-03-16T18:07:32.778Z,98701.17
2019-03-16T18:10:05.726Z,98701.81
2019-03-16T18:12:38.276Z,98696.17
2019-03-16T18:15:12.046Z,98693.78
2019-03-16T18:17:44.573Z,98692.66
2019-03-16T18:20:17.886Z,98693.27
2019-03-16T18:22:50.505Z,98689.27
2019-03-16T18:25:22.891Z,98685.91
2019-03-16T18:27:55.266Z,98683.83
2019-03-16T18:30:27.685Z,98682.55
2019-03-16T18:33:00.060Z,98683.34
2019-03-16T18:35:32.524Z,98683.34
2019-03-16T18:38:23.225Z,98677.43
2019-03-16T18:40:56.108Z,98677.27
2019-03-16T18:43:47.509Z,98669.37
2019-03-16T18:46:38.679Z,98677.98
2019-03-16T18:49:29.236Z,98677.47
2019-03-16T18:52:19.422Z,98678.58
2019-03-16T18:55:11.469Z,98674.52
2019-03-16T18:58:01.683Z,98675.80
2019-03-16T19:00:51.823Z,98661.82
2019-03-16T19:03:42.156Z,98660.70
2019-03-16T19:06:32.801Z,98652.45
2019-03-16T19:09:23.277Z,98658.17
2019-03-16T19:12:14.433Z,98648.42
2019-03-16T19:15:04.589Z,98651.91
2019-03-16T19:17:58.917Z,98648.20
2019-03-16T19:20:46.932Z,98636.33
2019-03-16T19:23:38.279Z,98642.56
2019-03-16T19:26:30.185Z,98636.45
2019-03-16T19:29:21.311Z,98629.42
2019-03-16T19:32:12.824Z,98632.11
2019-03-16T19:35:04.325Z,98626.89
2019-03-16T19:37:55.740Z,98631.85
2019-03-16T19:40:46.462Z,98627.38
2019-03-16T19:43:37.832Z,98625.45
2019-03-16T19:46:28.005Z,98621.45
2019-03-16T19:49:18.333Z,98615.51
2019-03-16T19:52:09.057Z,98618.06
2019-03-16T19:55:00.377Z,98607.67
2019-03-16T19:57:52.024Z,98609.44
2019-03-16T20:00:42.223Z,98615.83
2019-03-16T20:03:32.596Z,98604.25
2019-03-16T20:06:25.953Z,98603.30
2019-03-16T20:09:15.621Z,98605.53
2019-03-16T20:12:06.882Z,98597.38
2019-03-16T20:14:57.432Z,98603.14
2019-03-16T20:17:48.056Z,98604.09
2019-03-16T20:20:38.514Z,98602.84
2019-03-16T20:23:29.268Z,98609.34
2019-03-16T20:26:19.718Z,98601.38
2019-03-16T20:29:10.585Z,98616.56
2019-03-16T20:32:00.835Z,98609.69
2019-03-16T20:34:51.310Z,98606.81
2019-03-16T20:37:42.509Z,98610.81
2019-03-16T20:40:32.617Z,98608.54
2019-03-16T20:43:23.605Z,98605.18
2019-03-16T20:46:14.580Z,98608.57
2019-03-16T20:49:05.576Z,98606.63
2019-03-16T20:51:56.804Z,98604.52
2019-03-16T20:54:48.021Z,98604.06
2019-03-16T20:57:39.318Z,98597.86
2019-03-16T21:00:30.794Z,98591.59
2019-03-16T21:03:21.347Z,98592.87
2019-03-16T21:06:12.232Z,98591.75
2019-03-16T21:09:03.659Z,98593.70
2019-03-16T21:11:54.001Z,98587.78
2019-03-16T21:14:44.285Z,98584.42
2019-03-16T21:17:34.962Z,98584.42
2019-03-16T21:20:25.209Z,98581.74
2019-03-16T21:23:15.577Z,98574.23
2019-03-16T21:26:05.651Z,98575.31
2019-03-16T21:28:56.313Z,98569.27
2019-03-16T21:31:47.218Z,98556.16
2019-03-16T21:34:37.274Z,98552.83
2019-03-16T21:37:27.730Z,98561.78
2019-03-16T21:40:20.047Z,98564.38
2019-03-16T21:43:10.526Z,98546.47
2019-03-16T21:46:01.562Z,98553.82
2019-03-16T21:48:53.382Z,98549.34
2019-03-16T21:51:43.704Z,98547.27
2019-03-16T21:54:34.373Z,98543.59
2019-03-16T21:57:25.000Z,98532.23
2019-03-16T22:00:16.436Z,98528.63
2019-03-16T22:03:07.642Z,98519.19
2019-03-16T22:05:57.895Z,98523.05
2019-03-16T22:08:48.601Z,98523.85
2019-03-16T22:11:39.699Z,98517.62
2019-03-16T22:14:30.973Z,98517.30
2019-03-16T22:17:22.238Z,98514.25
2019-03-16T22:20:13.529Z,98512.50
2019-03-16T22:23:06.371Z,98515.86
2019-03-16T22:25:56.918Z,98512.81
2019-03-16T22:28:47.009Z,98504.05
2019-03-16T22:31:37.353Z,98506.61
2019-03-16T22:34:27.991Z,98504.53
2019-03-16T22:37:18.354Z,98502.33
2019-03-16T22:40:09.080Z,98501.36
2019-03-16T22:42:59.970Z,98500.27
2019-03-16T22:45:50.946Z,98493.72
2019-03-16T22:48:41.606Z,98487.35
2019-03-16T22:51:31.918Z,98485.56
2019-03-16T22:54:22.127Z,98485.30
2019-03-16T22:57:12.197Z,98478.42
2019-03-16T23:00:05.800Z,98476.98
2019-03-16T23:02:57.561Z,98477.14
2019-03-16T23:05:48.553Z,98480.82
2019-03-16T23:08:39.467Z,98474.77
2019-03-16T23:11:29.885Z,98466.62
2019-03-16T23:14:20.370Z,98475.63
2019-03-16T23:17:11.827Z,98460.12
2019-03-16T23:20:02.395Z,98455.16
2019-03-16T23:22:53.637Z,98447.64
2019-03-16T23:25:44.110Z,98435.81
2019-03-16T23:28:34.746Z,98430.20
2019-03-16T23:31:25.430Z,98432.77
2019-03-16T23:34:19.344Z,98430.37
2019-03-16T23:37:08.687Z,98423.84
2019-03-16T23:39:59.678Z,98415.66
2019-03-16T23:42:50.647Z,98408.62
2019-03-16T23:45:41.133Z,98397.91
2019-03-16T23:48:31.768Z,98388.60
2019-03-16T23:51:22.799Z,98388.47
2019-03-16T23:54:13.067Z,98390.39
2019-03-16T23:57:03.810Z,98388.77
2019-03-16T23:59:55.114Z,98377.92
